Time;durP1;ratioP1;P1;durP2;ratioP2;P2;SDS_P1;SDS_P2;PMS_P1;PMS_P2;Temp;Humidity;BMP_temperature;BMP_pressure;BME280_temperature;BME280_humidity;BME280_pressure;Samples;Min_cycle;Max_cycle;Signal;HPM_P1;HPM_P2
2023/09/24 00:04:37;;;;;;;6.23;3.17;;;;;9.60;101772.00;;;;9926468;29;21075;-83
2023/09/24 00:09:39;;;;;;;6.13;2.90;;;;;9.50;101787.00;;;;9925512;29;20316;-83
2023/09/24 00:14:41;;;;;;;5.23;2.83;;;;;9.50;101793.00;;;;9917610;29;20232;-82
2023/09/24 00:19:45;;;;;;;11.80;2.40;;;;;9.50;101795.00;;;;9942582;29;20217;-83
2023/09/24 00:24:48;;;;;;;6.50;2.43;;;;;9.50;101790.00;;;;9924920;29;20221;-83
2023/09/24 00:29:50;;;;;;;6.43;1.93;;;;;9.50;101786.00;;;;9929138;29;20856;-82
2023/09/24 00:34:52;;;;;;;5.40;2.30;;;;;9.50;101795.00;;;;9947765;29;20305;-83
2023/09/24 00:39:54;;;;;;;12.67;8.17;;;;;9.40;101792.00;;;;9929608;29;20374;-81
2023/09/24 00:44:56;;;;;;;12.73;11.43;;;;;9.40;101779.00;;;;9924399;29;20317;-81
2023/09/24 00:49:59;;;;;;;17.17;14.10;;;;;9.40;101774.00;;;;9929204;29;20220;-83
2023/09/24 00:55:05;;;;;;;15.73;12.73;;;;;9.40;101778.00;;;;9930507;29;20263;-82
2023/09/24 01:00:11;;;;;;;16.03;10.07;;;;;9.30;101788.00;;;;9929285;29;20232;-82
2023/09/24 01:05:18;;;;;;;13.90;9.37;;;;;9.20;101792.00;;;;9944161;29;20675;-83
2023/09/24 01:10:23;;;;;;;12.73;8.20;;;;;9.20;101791.00;;;;9924618;29;20600;-83
2023/09/24 01:15:25;;;;;;;13.53;5.97;;;;;9.10;101787.00;;;;9924934;29;20217;-82
2023/09/24 01:20:31;;;;;;;9.90;6.00;;;;;8.90;101791.00;;;;9913907;29;20603;-82
2023/09/24 01:25:35;;;;;;;12.83;5.37;;;;;8.80;101803.00;;;;9925098;29;20302;-82
2023/09/24 01:30:38;;;;;;;9.33;4.73;;;;;8.70;101804.00;;;;9910380;29;20696;-82
2023/09/24 01:35:40;;;;;;;8.73;4.10;;;;;8.60;101803.00;;;;9941974;29;20225;-83
2023/09/24 01:40:42;;;;;;;9.00;3.37;;;;;8.50;101798.00;;;;9925765;29;20232;-82
2023/09/24 01:45:45;;;;;;;7.37;3.40;;;;;8.50;101805.00;;;;9940163;29;20260;-82
2023/09/24 01:50:47;;;;;;;5.87;3.00;;;;;8.40;101792.00;;;;9922925;29;20554;-82
2023/09/24 01:55:49;;;;;;;7.40;3.17;;;;;8.40;101792.00;;;;9926008;29;20246;-83
2023/09/24 02:00:51;;;;;;;8.80;3.40;;;;;8.30;101795.00;;;;9923301;29;20525;-82
2023/09/24 02:05:55;;;;;;;7.90;2.50;;;;;8.30;101799.00;;;;9924291;29;20218;-82
2023/09/24 02:10:57;;;;;;;10.23;3.60;;;;;8.30;101799.00;;;;9942621;29;20253;-82
2023/09/24 02:16:00;;;;;;;4.87;2.53;;;;;8.40;101795.00;;;;9931371;29;20654;-82
2023/09/24 02:21:12;;;;;;;5.83;3.00;;;;;8.40;101796.00;;;;9910655;29;20230;-81
2023/09/24 02:26:14;;;;;;;2.87;2.57;;;;;8.40;101792.00;;;;9940645;29;20792;-79
2023/09/24 02:31:16;;;;;;;9.03;2.90;;;;;8.40;101795.00;;;;9938288;29;20240;-82
2023/09/24 02:36:19;;;;;;;7.40;3.20;;;;;8.30;101804.00;;;;9906884;29;20233;-81
2023/09/24 02:41:22;;;;;;;6.57;3.10;;;;;8.30;101805.00;;;;9934619;29;20842;-81
2023/09/24 02:46:26;;;;;;;4.87;2.80;;;;;8.30;101803.00;;;;9908744;29;20249;-79
2023/09/24 02:51:28;;;;;;;7.23;3.30;;;;;8.30;101795.00;;;;9937722;29;20292;-82
2023/09/24 02:56:30;;;;;;;5.17;2.83;;;;;8.20;101805.00;;;;9922215;29;20229;-79
2023/09/24 03:01:33;;;;;;;8.03;2.50;;;;;8.30;101800.00;;;;9906633;29;20220;-80
2023/09/24 03:06:37;;;;;;;7.03;3.10;;;;;8.30;101795.00;;;;9909753;29;20225;-81
2023/09/24 03:11:40;;;;;;;7.57;3.80;;;;;8.20;101804.00;;;;9891053;29;20858;-81
2023/09/24 03:16:42;;;;;;;13.23;3.83;;;;;8.10;101815.00;;;;9920974;29;20254;-80
2023/09/24 03:21:44;;;;;;;4.10;3.00;;;;;8.10;101825.00;;;;9913198;29;20348;-81
2023/09/24 03:26:47;;;;;;;5.17;3.20;;;;;8.00;101830.00;;;;9932882;29;21320;-80
2023/09/24 03:31:49;;;;;;;9.27;3.53;;;;;8.00;101823.00;;;;9907126;29;20225;-81
2023/09/24 03:36:51;;;;;;;6.03;3.57;;;;;7.90;101831.00;;;;9908597;29;21602;-81
2023/09/24 03:41:53;;;;;;;6.03;3.33;;;;;7.90;101826.00;;;;9917622;29;20325;-83
2023/09/24 03:46:55;;;;;;;7.50;3.73;;;;;7.90;101831.00;;;;9931740;29;20225;-82
2023/09/24 03:51:57;;;;;;;6.93;3.83;;;;;7.80;101832.00;;;;9918998;29;20237;-80
2023/09/24 03:56:59;;;;;;;9.13;3.70;;;;;7.80;101831.00;;;;9901247;29;20226;-81
2023/09/24 04:02:06;;;;;;;7.27;3.63;;;;;7.80;101817.00;;;;9918046;29;20593;-83
2023/09/24 04:07:08;;;;;;;8.73;3.70;;;;;7.80;101827.00;;;;9907509;29;20225;-80
2023/09/24 04:12:10;;;;;;;10.93;4.13;;;;;7.80;101837.00;;;;9904989;29;21595;-80
2023/09/24 04:17:12;;;;;;;11.97;3.60;;;;;7.80;101840.00;;;;9918065;29;20225;-82
2023/09/24 04:22:15;;;;;;;9.87;4.23;;;;;7.90;101831.00;;;;9917573;29;20240;-81
2023/09/24 04:27:17;;;;;;;6.20;4.20;;;;;7.90;101825.00;;;;9928065;29;20282;-80
2023/09/24 04:32:19;;;;;;;8.20;3.50;;;;;8.00;101830.00;;;;9902333;29;20225;-82
2023/09/24 04:37:21;;;;;;;9.07;3.80;;;;;8.40;101836.00;;;;9915483;29;20290;-81
2023/09/24 04:42:24;;;;;;;8.67;3.90;;;;;8.50;101833.00;;;;9937716;29;20966;-82
2023/09/24 04:47:27;;;;;;;7.40;3.60;;;;;8.50;101831.00;;;;9925326;29;21925;-81
2023/09/24 04:52:29;;;;;;;8.63;3.87;;;;;8.70;101834.00;;;;9924356;29;20794;-81
2023/09/24 04:57:31;;;;;;;8.53;3.73;;;;;8.70;101836.00;;;;9937104;29;20248;-80
2023/09/24 05:02:34;;;;;;;12.43;3.83;;;;;8.70;101829.00;;;;9906215;29;20226;-81
2023/09/24 05:07:36;;;;;;;9.83;4.13;;;;;8.80;101840.00;;;;9925957;29;20235;-81
2023/09/24 05:12:40;;;;;;;7.97;3.93;;;;;8.70;101846.00;;;;9907832;29;20403;-81
2023/09/24 05:17:42;;;;;;;9.63;4.50;;;;;8.60;101853.00;;;;9942602;29;20350;-82
2023/09/24 05:22:45;;;;;;;9.03;4.77;;;;;8.60;101863.00;;;;9937513;29;20218;-82
2023/09/24 05:27:46;;;;;;;12.80;5.50;;;;;8.70;101855.00;;;;9922541;29;20222;-80
2023/09/24 05:32:48;;;;;;;13.77;5.93;;;;;8.90;101862.00;;;;9938579;29;20272;-80
2023/09/24 05:37:50;;;;;;;15.17;5.83;;;;;9.00;101881.00;;;;9957496;29;21259;-80
2023/09/24 05:42:53;;;;;;;13.63;5.97;;;;;9.00;101882.00;;;;9926698;29;20280;-82
2023/09/24 05:47:55;;;;;;;10.70;4.73;;;;;9.00;101892.00;;;;9913021;29;20937;-83
2023/09/24 05:52:57;;;;;;;12.67;5.33;;;;;9.10;101891.00;;;;9943535;29;20264;-87
2023/09/24 05:57:59;;;;;;;11.40;5.23;;;;;9.20;101891.00;;;;9928255;29;20276;-87
2023/09/24 06:03:02;;;;;;;14.53;5.33;;;;;9.40;101891.00;;;;9912520;29;20652;-87
2023/09/24 06:08:05;;;;;;;10.47;4.57;;;;;9.60;101899.00;;;;9929366;29;20218;-85
2023/09/24 06:13:08;;;;;;;10.17;4.10;;;;;9.70;101894.00;;;;9929697;29;20244;-87
2023/09/24 06:18:11;;;;;;;12.07;4.87;;;;;10.00;101899.00;;;;9913672;29;20861;-86
2023/09/24 06:23:13;;;;;;;8.97;4.40;;;;;10.20;101899.00;;;;9913233;29;20213;-86
2023/09/24 06:28:16;;;;;;;14.63;5.50;;;;;10.40;101899.00;;;;9900895;29;21270;-86
2023/09/24 06:33:18;;;;;;;9.37;4.20;;;;;10.60;101897.00;;;;9941116;29;20233;-85
2023/09/24 06:38:20;;;;;;;8.47;4.33;;;;;10.80;101896.00;;;;9928398;29;20218;-86
2023/09/24 06:43:24;;;;;;;9.37;3.30;;;;;11.00;101904.00;;;;9916734;29;21406;-84
2023/09/24 06:48:26;;;;;;;12.10;3.43;;;;;11.10;101909.00;;;;9919945;29;20222;-85
2023/09/24 06:53:28;;;;;;;6.30;2.83;;;;;11.30;101915.00;;;;9935157;29;20305;-87
2023/09/24 06:58:35;;;;;;;8.77;2.87;;;;;11.60;101912.00;;;;9940320;29;20662;-81
2023/09/24 07:03:37;;;;;;;4.37;2.83;;;;;11.80;101918.00;;;;9929184;29;20398;-82
2023/09/24 07:08:39;;;;;;;6.93;3.17;;;;;12.00;101917.00;;;;9923845;29;20225;-83
2023/09/24 07:13:41;;;;;;;9.10;2.60;;;;;12.20;101924.00;;;;9910972;29;20333;-83
2023/09/24 07:18:43;;;;;;;7.17;2.50;;;;;12.40;101930.00;;;;9907690;29;20308;-82
2023/09/24 07:23:47;;;;;;;6.90;2.07;;;;;12.70;101932.00;;;;9922664;29;20605;-83
2023/09/24 07:28:50;;;;;;;11.03;2.93;;;;;12.90;101943.00;;;;9925033;29;20830;-82
2023/09/24 07:33:53;;;;;;;6.33;2.00;;;;;13.20;101938.00;;;;9925427;29;20616;-83
2023/09/24 07:38:55;;;;;;;6.10;2.40;;;;;13.40;101937.00;;;;9924276;29;20209;-82
2023/09/24 07:43:57;;;;;;;5.30;1.98;;;;;13.60;101938.00;;;;9937391;29;20224;-83
2023/09/24 07:49:03;;;;;;;3.33;1.90;;;;;13.90;101948.00;;;;9940525;29;20736;-83
2023/09/24 07:54:06;;;;;;;4.68;1.90;;;;;14.10;101944.00;;;;9923310;29;20240;-84
2023/09/24 07:59:10;;;;;;;5.22;1.92;;;;;14.40;101952.00;;;;9909491;29;20229;-83
2023/09/24 08:04:12;;;;;;;6.05;2.22;;;;;14.80;101953.00;;;;9925470;29;20236;-83
2023/09/24 08:09:14;;;;;;;8.23;2.17;;;;;15.20;101960.00;;;;9905935;29;20233;-82
2023/09/24 08:14:28;;;;;;;6.40;1.75;;;;;15.50;101962.00;;;;9929622;29;22255;-80
2023/09/24 08:19:30;;;;;;;8.27;2.53;;;;;15.90;101958.00;;;;9916048;29;20349;-83
2023/09/24 08:24:33;;;;;;;9.38;2.10;;;;;16.40;101964.00;;;;9913513;29;20220;-81
2023/09/24 08:29:35;;;;;;;7.18;1.98;;;;;16.70;101965.00;;;;9929372;29;20280;-81
2023/09/24 08:34:37;;;;;;;2.58;1.45;;;;;17.00;101950.00;;;;9912633;29;20608;-83
2023/09/24 08:39:39;;;;;;;3.13;1.30;;;;;17.40;101955.00;;;;9914100;29;20445;-81
2023/09/24 08:44:41;;;;;;;4.22;1.98;;;;;17.80;101941.00;;;;9914285;29;20218;-82
2023/09/24 08:49:47;;;;;;;7.00;1.48;;;;;18.20;101954.00;;;;9912535;29;21382;-81
2023/09/24 08:54:51;;;;;;;3.63;1.63;;;;;18.50;101954.00;;;;9944884;29;20243;-82
2023/09/24 08:59:53;;;;;;;4.25;1.83;;;;;18.80;101947.00;;;;9928662;29;20229;-82
2023/09/24 09:04:56;;;;;;;3.25;1.40;;;;;19.10;101942.00;;;;9926194;29;20242;-83
2023/09/24 09:10:01;;;;;;;2.72;1.50;;;;;19.40;101923.00;;;;9898261;29;21433;-82
2023/09/24 09:15:15;;;;;;;3.92;1.65;;;;;19.70;101930.00;;;;9918120;29;20308;-83
2023/09/24 09:20:18;;;;;;;5.18;1.80;;;;;19.90;101925.00;;;;9933694;29;20209;-84
2023/09/24 09:25:20;;;;;;;4.57;1.60;;;;;20.20;101922.00;;;;9946916;29;20760;-85
2023/09/24 09:30:22;;;;;;;5.93;1.70;;;;;20.60;101908.00;;;;9957444;29;20276;-85
2023/09/24 09:35:36;;;;;;;3.83;1.88;;;;;20.80;101902.00;;;;9942999;29;20240;-85
2023/09/24 09:40:38;;;;;;;3.40;1.52;;;;;20.80;101894.00;;;;9941994;29;21311;-83
2023/09/24 09:45:43;;;;;;;5.88;1.52;;;;;20.80;101903.00;;;;9941467;29;20230;-83
2023/09/24 09:50:49;;;;;;;6.03;2.15;;;;;20.80;101903.00;;;;9943752;29;20344;-85
2023/09/24 09:55:53;;;;;;;5.20;1.70;;;;;20.80;101907.00;;;;9940206;29;20269;-85
2023/09/24 10:00:55;;;;;;;3.65;1.98;;;;;20.90;101901.00;;;;9946157;29;20319;-83
2023/09/24 10:05:58;;;;;;;3.95;1.88;;;;;21.00;101895.00;;;;9964061;29;20237;-86
2023/09/24 10:11:01;;;;;;;2.50;1.80;;;;;21.00;101889.00;;;;9948454;29;20216;-84
2023/09/24 10:16:25;;;;;;;4.35;2.17;;;;;21.10;101881.00;;;;9962003;29;20791;-84
2023/09/24 10:21:32;;;;;;;5.85;2.00;;;;;21.60;101869.00;;;;9959711;29;20795;-84
2023/09/24 10:27:07;;;;;;;5.30;2.67;;;;;22.20;101873.00;;;;9935431;29;20217;-83
2023/09/24 10:32:15;;;;;;;5.43;2.53;;;;;22.40;101860.00;;;;9945187;29;20229;-82
2023/09/24 10:37:29;;;;;;;5.80;2.83;;;;;22.80;101871.00;;;;9951218;29;20221;-82
2023/09/24 10:42:37;;;;;;;3.25;1.85;;;;;23.00;101860.00;;;;9922724;29;20228;-82
2023/09/24 10:47:40;;;;;;;4.10;2.00;;;;;23.30;101855.00;;;;9938150;29;20947;-82
2023/09/24 10:53:01;;;;;;;4.32;1.58;;;;;23.70;101853.00;;;;9938294;29;20595;-81
2023/09/24 10:58:11;;;;;;;2.90;1.40;;;;;23.70;101850.00;;;;9936697;29;20754;-82
2023/09/24 11:03:14;;;;;;;4.38;1.45;;;;;23.70;101837.00;;;;9922616;29;20252;-83
2023/09/24 11:08:18;;;;;;;3.45;1.40;;;;;23.60;101840.00;;;;9939083;29;20422;-82
2023/09/24 11:13:25;;;;;;;3.90;1.70;;;;;23.60;101836.00;;;;9927226;29;20368;-82
2023/09/24 11:18:28;;;;;;;5.65;1.67;;;;;23.50;101832.00;;;;9934549;29;20320;-83
2023/09/24 11:23:37;;;;;;;2.40;1.40;;;;;23.80;101842.00;;;;9919045;29;20233;-83
2023/09/24 11:28:39;;;;;;;4.35;1.63;;;;;24.00;101842.00;;;;9920914;29;20217;-83
2023/09/24 11:33:55;;;;;;;4.60;1.50;;;;;24.20;101842.00;;;;9919341;29;21051;-83
2023/09/24 11:39:00;;;;;;;3.50;1.55;;;;;24.00;101838.00;;;;9934950;29;20399;-87
2023/09/24 11:44:03;;;;;;;2.60;1.42;;;;;24.10;101833.00;;;;9948046;29;20221;-86
2023/09/24 11:49:05;;;;;;;4.15;1.95;;;;;24.10;101836.00;;;;9893080;29;20228;-87
2023/09/24 11:54:09;;;;;;;2.67;1.50;;;;;24.20;101831.00;;;;9930336;29;21549;-87
2023/09/24 11:59:11;;;;;;;4.43;1.80;;;;;24.30;101833.00;;;;9914803;29;20750;-87
2023/09/24 12:04:14;;;;;;;3.90;1.58;;;;;24.20;101821.00;;;;9944378;29;20373;-87
2023/09/24 12:09:16;;;;;;;2.67;1.30;;;;;24.10;101820.00;;;;9929826;29;20221;-87
2023/09/24 12:14:18;;;;;;;4.60;1.50;;;;;24.20;101818.00;;;;9931427;29;20216;-88
2023/09/24 12:19:20;;;;;;;4.10;1.90;;;;;24.20;101818.00;;;;9917246;29;20229;-87
2023/09/24 12:24:22;;;;;;;3.85;1.80;;;;;24.30;101812.00;;;;9914321;29;20245;-86
2023/09/24 12:29:24;;;;;;;3.75;1.70;;;;;24.30;101811.00;;;;9914152;29;20217;-86
2023/09/24 12:34:25;;;;;;;5.05;1.88;;;;;24.40;101806.00;;;;9944995;29;20237;-86
2023/09/24 12:39:28;;;;;;;3.15;1.92;;;;;24.40;101797.00;;;;9912396;29;20300;-87
2023/09/24 12:44:30;;;;;;;2.78;1.75;;;;;24.30;101796.00;;;;9901114;29;20292;-87
2023/09/24 12:49:32;;;;;;;1.85;1.15;;;;;24.20;101792.00;;;;9925098;29;20252;-82
2023/09/24 12:54:34;;;;;;;3.47;1.38;;;;;23.90;101784.00;;;;9928033;29;20441;-82
2023/09/24 12:59:36;;;;;;;2.42;1.33;;;;;24.00;101786.00;;;;9908906;29;21515;-83
2023/09/24 13:04:38;;;;;;;2.88;1.35;;;;;23.90;101781.00;;;;9946977;29;20775;-83
2023/09/24 13:09:41;;;;;;;2.42;1.60;;;;;23.60;101778.00;;;;9926053;29;20375;-83
2023/09/24 13:14:43;;;;;;;1.98;1.40;;;;;23.50;101776.00;;;;9913973;29;20359;-83
2023/09/24 13:19:45;;;;;;;3.08;1.42;;;;;23.50;101788.00;;;;9931990;29;20274;-82
2023/09/24 13:24:47;;;;;;;2.50;1.50;;;;;23.30;101786.00;;;;9914325;29;20467;-83
2023/09/24 13:29:51;;;;;;;3.35;1.30;;;;;23.20;101775.00;;;;9902869;29;20327;-84
2023/09/24 13:34:53;;;;;;;2.50;1.17;;;;;23.40;101771.00;;;;9950783;29;21273;-83
2023/09/24 13:39:55;;;;;;;2.42;1.15;;;;;23.60;101752.00;;;;9926301;29;20230;-84
2023/09/24 13:44:57;;;;;;;3.35;1.33;;;;;24.10;101753.00;;;;9925714;29;20684;-84
2023/09/24 13:49:59;;;;;;;4.43;1.23;;;;;24.90;101730.00;;;;9939645;29;20297;-84
2023/09/24 13:55:02;;;;;;;3.47;1.00;;;;;25.50;101692.00;;;;9908409;29;20235;-83
2023/09/24 14:00:06;;;;;;;2.95;1.08;;;;;25.70;101704.00;;;;9951347;29;20237;-83
2023/09/24 14:05:08;;;;;;;3.22;1.45;;;;;24.30;101724.00;;;;9950903;29;20331;-82
2023/09/24 14:15:34;;;;;;;2.72;1.10;;;;;22.60;101718.00;;;;9955522;29;20248;-83
2023/09/24 14:20:36;;;;;;;2.13;1.17;;;;;22.10;101719.00;;;;9956083;29;21796;-83
2023/09/24 14:25:39;;;;;;;1.67;1.15;;;;;21.80;101702.00;;;;9939117;29;20222;-82
2023/09/24 14:30:42;;;;;;;3.03;1.33;;;;;20.90;101715.00;;;;9946449;29;20348;-82
2023/09/24 14:35:45;;;;;;;1.95;1.10;;;;;20.60;101706.00;;;;9940126;29;20322;-82
2023/09/24 14:40:47;;;;;;;1.23;1.00;;;;;20.30;101707.00;;;;9968536;29;20260;-82
2023/09/24 14:46:00;;;;;;;1.92;1.05;;;;;20.10;101708.00;;;;9971103;29;20262;-82
2023/09/24 14:51:03;;;;;;;1.73;0.75;;;;;20.00;101705.00;;;;9936254;29;20225;-82
2023/09/24 14:56:05;;;;;;;1.92;1.50;;;;;19.80;101704.00;;;;9971233;29;20246;-81
2023/09/24 15:01:07;;;;;;;1.75;1.33;;;;;19.70;101709.00;;;;9964471;29;20301;-81
2023/09/24 15:06:09;;;;;;;2.53;0.93;;;;;19.60;101700.00;;;;9967526;29;20225;-81
2023/09/24 15:11:12;;;;;;;1.63;1.00;;;;;19.60;101695.00;;;;9954530;29;20225;-82
2023/09/24 15:16:14;;;;;;;1.13;0.90;;;;;19.50;101700.00;;;;9958408;29;20268;-82
2023/09/24 15:21:18;;;;;;;1.73;1.00;;;;;19.40;101694.00;;;;9941439;29;20225;-84
2023/09/24 15:26:23;;;;;;;2.55;1.23;;;;;19.30;101693.00;;;;9929623;29;20305;-83
2023/09/24 15:31:26;;;;;;;1.65;1.20;;;;;19.30;101695.00;;;;9953551;29;22079;-80
2023/09/24 15:36:27;;;;;;;2.20;1.20;;;;;19.20;101686.00;;;;9968928;29;20628;-83
2023/09/24 15:41:30;;;;;;;1.48;1.17;;;;;19.20;101687.00;;;;9952377;29;20236;-82
2023/09/24 15:46:32;;;;;;;1.75;1.17;;;;;19.10;101687.00;;;;9927446;29;20245;-83
2023/09/24 15:51:35;;;;;;;3.47;1.25;;;;;19.10;101685.00;;;;9942102;29;20242;-83
2023/09/24 15:56:37;;;;;;;3.17;1.20;;;;;18.90;101672.00;;;;9938810;29;20764;-82
2023/09/24 16:01:39;;;;;;;2.20;1.35;;;;;18.80;101680.00;;;;9954805;29;20244;-82
2023/09/24 16:06:41;;;;;;;2.30;1.30;;;;;18.70;101669.00;;;;9955501;29;20226;-82
2023/09/24 16:11:45;;;;;;;1.63;1.10;;;;;18.70;101677.00;;;;9956301;29;21486;-83
2023/09/24 16:16:47;;;;;;;3.58;2.03;;;;;18.60;101678.00;;;;9957915;29;20244;-82
2023/09/24 16:21:49;;;;;;;5.70;1.33;;;;;18.50;101686.00;;;;9940859;29;20223;-80
2023/09/24 16:26:50;;;;;;;1.75;1.10;;;;;18.50;101682.00;;;;9950135;29;20240;-81
2023/09/24 16:31:53;;;;;;;1.85;1.25;;;;;18.40;101685.00;;;;9943315;29;20220;-79
2023/09/24 16:36:56;;;;;;;2.33;1.55;;;;;18.30;101670.00;;;;9976503;29;20237;-78
2023/09/24 16:41:58;;;;;;;2.28;1.40;;;;;18.20;101685.00;;;;10020645;29;21673;-78
2023/09/24 16:47:01;;;;;;;2.42;1.52;;;;;18.10;101683.00;;;;9983291;29;20408;-80
2023/09/24 16:52:03;;;;;;;3.15;1.40;;;;;18.00;101681.00;;;;9980395;29;20210;-78
2023/09/24 16:57:05;;;;;;;2.97;1.90;;;;;17.90;101683.00;;;;9998239;29;20304;-77
2023/09/24 17:02:07;;;;;;;4.43;1.83;;;;;17.70;101683.00;;;;9982290;29;20293;-77
2023/09/24 17:07:11;;;;;;;2.55;1.50;;;;;17.60;101679.00;;;;9983718;29;20263;-78
2023/09/24 17:13:03;;;;;;;3.78;1.40;;;;;17.30;101671.00;;;;9996251;29;20221;-80
2023/09/24 17:18:06;;;;;;;3.40;1.65;;;;;17.20;101672.00;;;;9957936;29;20221;-79
2023/09/24 17:23:08;;;;;;;3.08;1.52;;;;;17.10;101677.00;;;;9995388;29;21621;-77
2023/09/24 17:28:10;;;;;;;2.30;1.70;;;;;16.90;101670.00;;;;9964926;29;20228;-77
2023/09/24 17:33:16;;;;;;;2.70;1.83;;;;;16.70;101672.00;;;;9980673;29;20232;-85
2023/09/24 17:38:18;;;;;;;2.78;1.92;;;;;16.50;101680.00;;;;9993953;29;20226;-84
2023/09/24 20:11:12;;;;;;;4.20;2.10;;;;;13.40;101686.00;;;;10022105;29;20733;-85
2023/09/24 20:16:34;;;;;;;6.23;2.00;;;;;13.20;101681.00;;;;10007613;29;20229;-85
2023/09/24 20:21:37;;;;;;;2.33;1.73;;;;;13.10;101677.00;;;;10011532;29;20266;-85
2023/09/24 20:26:41;;;;;;;2.87;2.10;;;;;13.00;101673.00;;;;10008848;29;20211;-84
2023/09/24 20:31:45;;;;;;;4.63;2.30;;;;;12.80;101669.00;;;;9966243;29;20231;-81
2023/09/24 20:36:47;;;;;;;4.70;2.03;;;;;12.70;101667.00;;;;9962489;29;20283;-84
2023/09/24 20:41:53;;;;;;;4.73;2.03;;;;;12.70;101660.00;;;;9954009;29;20225;-83
2023/09/24 20:46:55;;;;;;;3.57;1.60;;;;;12.60;101658.00;;;;10002051;29;20210;-84
2023/09/24 20:51:57;;;;;;;2.33;1.97;;;;;12.50;101648.00;;;;9991921;29;20218;-83
2023/09/24 20:56:59;;;;;;;3.57;1.80;;;;;12.50;101651.00;;;;9973911;29;20230;-83
2023/09/24 21:02:01;;;;;;;2.57;2.00;;;;;12.60;101651.00;;;;9961832;29;20217;-83
2023/09/24 21:07:06;;;;;;;3.93;2.03;;;;;12.60;101644.00;;;;9961931;29;20241;-85
2023/09/24 21:12:08;;;;;;;2.97;1.87;;;;;12.50;101631.00;;;;9962024;29;20214;-80
2023/09/24 21:17:10;;;;;;;8.83;2.47;;;;;12.30;101624.00;;;;9968503;29;20333;-81
2023/09/24 21:22:25;;;;;;;4.93;1.93;;;;;12.30;101625.00;;;;9947322;29;20205;-81
2023/09/24 21:27:26;;;;;;;3.60;2.10;;;;;12.30;101616.00;;;;9961363;29;20880;-81
2023/09/24 21:32:29;;;;;;;6.53;2.37;;;;;12.30;101607.00;;;;9989145;29;20217;-81
2023/09/24 21:37:31;;;;;;;4.73;1.90;;;;;12.30;101604.00;;;;9974641;29;20580;-81
2023/09/24 21:42:34;;;;;;;3.67;2.30;;;;;12.30;101599.00;;;;9989315;29;20214;-80
2023/09/24 21:47:36;;;;;;;3.17;2.10;;;;;12.30;101591.00;;;;9966920;29;20241;-80
2023/09/24 21:52:38;;;;;;;2.93;1.80;;;;;12.30;101597.00;;;;9970505;29;20210;-81
2023/09/24 21:57:40;;;;;;;5.37;2.60;;;;;12.20;101593.00;;;;9964765;29;20980;-81
2023/09/24 22:02:42;;;;;;;7.00;3.17;;;;;12.20;101595.00;;;;9949914;29;20293;-81
2023/09/24 22:07:45;;;;;;;5.20;2.27;;;;;12.10;101592.00;;;;9978869;29;20202;-81
2023/09/24 22:12:49;;;;;;;4.33;2.17;;;;;12.00;101577.00;;;;9975182;29;20216;-81
2023/09/24 22:17:52;;;;;;;5.03;2.60;;;;;12.00;101581.00;;;;9970290;29;20230;-81
2023/09/24 22:22:54;;;;;;;4.63;2.63;;;;;11.90;101581.00;;;;10053116;24;20285;-91
2023/09/24 22:27:56;;;;;;;4.37;2.57;;;;;12.00;101578.00;;;;10023536;29;20209;-91
2023/09/24 22:33:01;;;;;;;3.87;2.10;;;;;12.00;101582.00;;;;10007479;29;20241;-91
2023/09/24 22:38:04;;;;;;;4.27;2.10;;;;;12.20;101557.00;;;;10031375;29;20237;-91
2023/09/24 22:43:06;;;;;;;6.03;1.97;;;;;12.40;101565.00;;;;10025350;29;20521;-90
2023/09/24 22:48:29;;;;;;;4.50;2.20;;;;;12.70;101560.00;;;;10146064;24;20316;-91
2023/09/24 23:00:56;;;;;;;4.33;2.10;;;;;13.00;101554.00;;;;2425085;24;20267;-91
2023/09/24 23:12:00;;;;;;;3.90;2.37;;;;;13.10;101554.00;;;;10112179;29;20197;-90
2023/09/24 23:17:08;;;;;;;2.50;1.90;;;;;13.10;101544.00;;;;10156567;24;20240;-90
2023/09/24 23:22:10;;;;;;;3.73;2.10;;;;;13.10;101540.00;;;;10087890;23;20713;-90
2023/09/24 23:33:13;;;;;;;2.80;1.73;;;;;13.00;101542.00;;;;9986282;29;20249;-76
2023/09/24 23:38:15;;;;;;;3.53;1.93;;;;;13.00;101536.00;;;;9981569;29;20236;-81
2023/09/24 23:43:18;;;;;;;4.33;1.97;;;;;12.90;101537.00;;;;9987308;29;20214;-76
2023/09/24 23:48:20;;;;;;;3.70;1.70;;;;;12.90;101537.00;;;;9976731;29;20226;-76
2023/09/24 23:53:22;;;;;;;4.70;2.10;;;;;12.80;101533.00;;;;10015188;29;20213;-76
2023/09/24 23:58:24;;;;;;;4.90;1.90;;;;;12.80;101542.00;;;;9965237;29;20753;-75
